Time;durP1;ratioP1;P1;durP2;ratioP2;P2;SDS_P1;SDS_P2;PMS_P1;PMS_P2;Temp;Humidity;BMP_temperature;BMP_pressure;BME280_temperature;BME280_humidity;BME280_pressure;Samples;Min_cycle;Max_cycle;Signal;HPM_P1;HPM_P2
2023/05/16 00:00:24;;;;;;;13.32;11.88;;;;;;;14.26;100.00;101366.63;5057663;28;20072;-72
2023/05/16 00:02:50;;;;;;;13.43;11.82;;;;;;;14.65;100.00;101415.28;5057264;28;20052;-73
2023/05/16 00:05:15;;;;;;;14.05;11.75;;;;;;;14.21;100.00;101337.72;5057122;28;20031;-73
2023/05/16 00:07:42;;;;;;;13.68;11.07;;;;;;;14.28;100.00;101319.66;5074798;28;20119;-73
2023/05/16 00:10:09;;;;;;;15.95;11.75;;;;;;;14.34;100.00;101299.06;5075261;28;20032;-74
2023/05/16 00:12:35;;;;;;;12.90;11.32;;;;;;;14.17;100.00;101249.13;5074902;28;20079;-74
2023/05/16 00:15:07;;;;;;;15.63;11.88;;;;;;;14.24;100.00;101305.22;5074380;28;20090;-74
2023/05/16 00:17:32;;;;;;;13.73;12.27;;;;;;;13.99;100.00;101275.09;5075043;28;20102;-74
2023/05/16 00:19:59;;;;;;;14.88;11.95;;;;;;;14.29;100.00;101290.66;5075346;28;20479;-74
2023/05/16 00:22:24;;;;;;;13.23;11.82;;;;;;;14.32;100.00;101300.00;5056876;28;20495;-73
2023/05/16 00:24:49;;;;;;;13.65;12.10;;;;;;;14.45;100.00;101303.94;5074610;28;20062;-73
2023/05/16 00:27:15;;;;;;;13.75;12.23;;;;;;;14.18;100.00;101279.78;5075086;28;20036;-74
2023/05/16 00:29:40;;;;;;;16.40;13.13;;;;;;;13.97;100.00;101223.13;5074755;28;20059;-74
2023/05/16 00:32:07;;;;;;;15.43;13.00;;;;;;;14.31;100.00;101267.59;5057391;28;20035;-73
2023/05/16 00:34:33;;;;;;;15.93;13.82;;;;;;;13.89;100.00;101198.59;5056471;28;20093;-73
2023/05/16 00:36:59;;;;;;;17.08;13.38;;;;;;;13.72;100.00;101162.34;5074749;28;20110;-74
2023/05/16 00:39:24;;;;;;;18.30;13.57;;;;;;;14.03;100.00;101169.31;5056956;28;20052;-73
2023/05/16 00:41:50;;;;;;;16.38;13.85;;;;;;;13.77;100.00;101106.84;5074584;28;20032;-73
2023/05/16 00:44:15;;;;;;;16.80;13.70;;;;;;;14.26;100.00;101159.41;5073892;28;20036;-73
2023/05/16 00:46:41;;;;;;;16.20;13.55;;;;;;;14.24;100.00;101145.81;5056509;28;20125;-74
2023/05/16 00:49:07;;;;;;;16.27;13.80;;;;;;;14.08;100.00;101118.91;5056600;28;20037;-73
2023/05/16 00:51:33;;;;;;;15.55;13.85;;;;;;;13.84;100.00;101028.31;5056552;28;20032;-73
2023/05/16 00:53:59;;;;;;;16.65;13.98;;;;;;;14.08;100.00;101052.41;5074325;28;20066;-73
2023/05/16 00:56:25;;;;;;;14.93;13.00;;;;;;;13.97;100.00;100985.34;5074961;28;20189;-73
2023/05/16 00:58:50;;;;;;;18.40;13.80;;;;;;;14.12;100.00;101003.72;5073623;28;20063;-74
2023/05/16 01:01:16;;;;;;;15.43;12.98;;;;;;;13.82;100.00;100884.34;5073232;28;20040;-72
2023/05/16 01:03:45;;;;;;;16.90;13.73;;;;;;;13.89;100.00;100867.94;5055867;28;20029;-73
2023/05/16 01:06:11;;;;;;;16.33;13.32;;;;;;;13.91;100.00;100846.59;5056187;28;20486;-73
2023/05/16 01:08:36;;;;;;;16.27;13.68;;;;;;;13.83;100.00;100822.97;5073698;28;20040;-73
2023/05/16 01:11:18;;;;;;;15.75;14.10;;;;;;;13.76;100.00;100792.50;5074365;28;20028;-73
2023/05/16 01:13:53;;;;;;;;;;;;;;;13.83;100.00;100791.44;5074589;28;20028;-74
2023/05/16 01:16:32;;;;;;;15.93;13.30;;;;;;;13.79;100.00;100800.06;5073621;28;19916;-74
2023/05/16 01:19:19;;;;;;;15.20;13.38;;;;;;;13.91;100.00;100808.25;5073935;28;20020;-74
2023/05/16 01:21:58;;;;;;;16.05;13.65;;;;;;;13.55;100.00;100777.75;5056269;28;20048;-74
2023/05/16 01:24:36;;;;;;;14.88;13.27;;;;;;;14.14;100.00;100865.56;5072509;28;20039;-74
2023/05/16 01:27:04;;;;;;;16.42;13.30;;;;;;;14.10;100.00;100869.09;5055875;28;20070;-75
2023/05/16 01:29:30;;;;;;;14.95;13.18;;;;;;;13.89;100.00;100878.19;5055504;28;20093;-74
2023/05/16 01:31:57;;;;;;;19.25;13.68;;;;;;;13.78;100.00;100877.63;5055734;28;20032;-74
2023/05/16 01:34:22;;;;;;;14.95;12.90;;;;;;;14.03;100.00;100949.41;5073633;28;20036;-74
2023/05/16 01:37:05;;;;;;;14.65;13.07;;;;;;;13.43;100.00;100886.19;5073003;28;20062;-74
2023/05/16 01:39:44;;;;;;;17.25;12.98;;;;;;;14.16;100.00;101019.81;5073477;28;20032;-74
2023/05/16 01:42:13;;;;;;;17.10;13.63;;;;;;;13.84;100.00;101034.22;5055632;28;20043;-75
2023/05/16 01:44:54;;;;;;;18.42;13.48;;;;;;;13.93;100.00;101051.91;5055292;28;20033;-74
2023/05/16 01:47:24;;;;;;;15.35;13.70;;;;;;;13.60;100.00;101029.72;5055714;28;20090;-74
2023/05/16 01:50:16;;;;;;;16.58;13.30;;;;;;;13.70;100.00;101089.97;5073479;28;20033;-74
2023/05/16 01:52:52;;;;;;;15.45;13.10;;;;;;;13.72;100.00;101100.16;5073499;28;20033;-75
2023/05/16 01:55:27;;;;;;;15.07;13.68;;;;;;;13.58;100.00;101080.03;5073238;28;20028;-74
2023/05/16 01:57:54;;;;;;;14.75;13.15;;;;;;;13.62;100.00;101096.97;5072742;28;20032;-74
2023/05/16 02:00:20;;;;;;;16.50;13.07;;;;;;;13.97;100.00;101134.50;5072968;28;20029;-74
2023/05/16 02:02:45;;;;;;;15.75;14.13;;;;;;;13.82;100.00;101158.72;5072247;28;20119;-73
2023/05/16 02:05:11;;;;;;;15.45;13.35;;;;;;;13.57;100.00;101123.47;5072974;28;20032;-74
2023/05/16 02:07:36;;;;;;;15.40;13.70;;;;;;;13.80;100.00;101168.13;5072774;28;20074;-74
2023/05/16 02:10:03;;;;;;;16.88;13.30;;;;;;;13.90;100.00;101182.38;5071308;28;20025;-74
2023/05/16 02:12:29;;;;;;;15.40;13.45;;;;;;;13.73;100.00;101150.38;5051944;28;20025;-74
2023/05/16 02:14:54;;;;;;;17.58;13.63;;;;;;;13.57;100.00;101138.81;5034653;28;20379;-74
2023/05/16 02:17:20;;;;;;;17.05;13.80;;;;;;;13.89;100.00;101180.69;5034664;28;20090;-74
2023/05/16 02:19:46;;;;;;;15.13;13.38;;;;;;;13.99;100.00;101223.94;5063201;28;20391;-74
2023/05/16 02:22:11;;;;;;;14.70;13.20;;;;;;;13.59;100.00;101168.56;5072098;28;20028;-74
2023/05/16 02:24:37;;;;;;;14.85;13.32;;;;;;;13.28;100.00;101151.34;5054999;28;20166;-74
2023/05/16 02:27:03;;;;;;;14.88;13.27;;;;;;;13.75;100.00;101231.28;5054700;28;20510;-75
2023/05/16 02:29:29;;;;;;;16.38;13.30;;;;;;;13.59;100.00;101208.59;5054430;28;20036;-73
2023/05/16 02:31:55;;;;;;;14.95;13.30;;;;;;;13.72;100.00;101243.28;5072501;28;20032;-74
2023/05/16 02:34:20;;;;;;;14.25;12.80;;;;;;;13.84;100.00;101254.06;5054599;28;20430;-73
2023/05/16 02:36:45;;;;;;;14.65;13.05;;;;;;;13.68;100.00;101249.31;5072276;28;20115;-74
2023/05/16 02:39:11;;;;;;;17.67;13.32;;;;;;;13.70;100.00;101253.53;5071728;28;20025;-74
2023/05/16 02:41:37;;;;;;;15.57;12.85;;;;;;;13.91;100.00;101263.31;5054507;28;20121;-75
2023/05/16 02:44:03;;;;;;;18.02;13.10;;;;;;;13.78;100.00;101268.72;5054448;28;20048;-73
2023/05/16 02:46:32;;;;;;;14.70;13.18;;;;;;;13.42;100.00;101236.22;5053711;28;20121;-74
2023/05/16 02:48:58;;;;;;;15.85;13.48;;;;;;;13.49;100.00;101220.72;5072092;28;20045;-73
2023/05/16 02:51:25;;;;;;;16.75;12.73;;;;;;;13.52;100.00;101220.69;5049262;28;20035;-74
2023/05/16 02:53:51;;;;;;;18.23;12.93;;;;;;;13.07;100.00;101183.28;5071977;28;20030;-74
2023/05/16 02:56:18;;;;;;;14.45;12.95;;;;;;;13.49;100.00;101273.56;5071663;28;20033;-73
2023/05/16 02:58:47;;;;;;;15.35;13.10;;;;;;;13.17;100.00;101230.75;5071006;28;20560;-73
2023/05/16 03:01:14;;;;;;;15.68;12.55;;;;;;;13.24;100.00;101246.78;5053728;28;20048;-73
2023/05/16 03:03:40;;;;;;;16.48;13.00;;;;;;;13.54;100.00;101294.75;5054486;28;20036;-74
2023/05/16 03:06:05;;;;;;;15.93;13.82;;;;;;;13.17;100.00;101250.31;5054193;28;20025;-73
2023/05/16 03:08:31;;;;;;;17.23;13.63;;;;;;;13.54;100.00;101307.53;5053591;28;20094;-74
2023/05/16 03:10:57;;;;;;;16.58;13.05;;;;;;;13.24;100.00;101273.16;5071634;28;20037;-74
2023/05/16 03:13:22;;;;;;;16.30;13.25;;;;;;;13.71;100.00;101347.22;5071656;28;20034;-73
2023/05/16 03:15:48;;;;;;;16.00;12.40;;;;;;;13.63;100.00;101333.75;5071436;28;20033;-75
2023/05/16 03:18:14;;;;;;;15.05;12.98;;;;;;;13.43;100.00;101320.50;5053620;28;20028;-74
2023/05/16 03:20:39;;;;;;;15.40;13.00;;;;;;;13.11;100.00;101255.53;5071274;28;20177;-74
2023/05/16 03:23:07;;;;;;;15.70;13.48;;;;;;;13.01;100.00;101263.31;5053695;28;20036;-74
2023/05/16 03:25:35;;;;;;;16.10;13.27;;;;;;;13.15;100.00;101277.59;5053083;28;20032;-74
2023/05/16 03:28:02;;;;;;;15.93;13.40;;;;;;;13.42;100.00;101339.25;5068925;28;20032;-73
2023/05/16 03:30:27;;;;;;;14.57;13.00;;;;;;;12.89;100.00;101262.69;5050780;28;20040;-73
2023/05/16 03:32:53;;;;;;;15.40;13.35;;;;;;;13.13;100.00;101315.09;5035304;28;20388;-74
2023/05/16 03:35:19;;;;;;;14.82;13.23;;;;;;;13.18;100.00;101313.28;5061675;28;20033;-72
2023/05/16 03:37:44;;;;;;;17.55;13.70;;;;;;;13.53;100.00;101362.91;5070172;28;20090;-73
2023/05/16 03:40:11;;;;;;;17.15;13.68;;;;;;;12.92;100.00;101270.28;5071404;28;20067;-73
2023/05/16 03:42:36;;;;;;;15.93;12.85;;;;;;;13.44;100.00;101342.63;5071092;28;20525;-74
2023/05/16 03:45:04;;;;;;;17.92;13.80;;;;;;;13.67;100.00;101370.31;5071457;28;20024;-74
2023/05/16 03:47:30;;;;;;;15.90;12.55;;;;;;;13.77;100.00;101394.84;5070168;28;20040;-74
2023/05/16 03:49:56;;;;;;;14.95;13.18;;;;;;;13.50;100.00;101357.00;5052987;28;20040;-73
2023/05/16 03:52:22;;;;;;;15.00;12.50;;;;;;;13.55;100.00;101337.31;5053244;28;20028;-73
2023/05/16 03:54:47;;;;;;;15.15;13.18;;;;;;;13.86;100.00;101377.59;5052508;28;20135;-74
2023/05/16 03:57:13;;;;;;;17.77;12.73;;;;;;;14.03;100.00;101376.44;5052942;28;20028;-73
2023/05/16 03:59:38;;;;;;;16.25;12.43;;;;;;;14.14;100.00;101379.66;5052318;28;20067;-73
2023/05/16 04:02:04;;;;;;;14.60;12.85;;;;;;;13.58;100.00;101293.81;5070729;28;20032;-74
2023/05/16 04:04:30;;;;;;;15.80;12.07;;;;;;;13.89;100.00;101311.09;5053105;28;20054;-74
2023/05/16 04:06:55;;;;;;;14.30;12.45;;;;;;;13.93;100.00;101292.25;5070345;28;20798;-71
2023/05/16 04:09:20;;;;;;;15.55;12.60;;;;;;;14.18;100.00;101323.25;5070472;28;20033;-75
2023/05/16 04:11:46;;;;;;;18.38;13.75;;;;;;;13.78;100.00;101243.16;5071150;28;20043;-75
2023/05/16 04:14:11;;;;;;;14.77;13.15;;;;;;;13.75;100.00;101230.44;5071234;28;20033;-75
2023/05/16 04:16:37;;;;;;;15.27;13.27;;;;;;;13.94;100.00;101250.44;5070385;28;20107;-76
2023/05/16 04:19:06;;;;;;;17.48;13.07;;;;;;;14.13;100.00;101258.59;5071585;28;20473;-76
2023/05/16 04:21:32;;;;;;;14.68;12.50;;;;;;;14.30;100.00;101271.03;5071505;28;20032;-74
2023/05/16 04:23:58;;;;;;;16.08;12.57;;;;;;;14.15;100.00;101248.31;5070814;28;20111;-73
2023/05/16 04:26:26;;;;;;;15.68;12.20;;;;;;;13.97;100.00;101215.47;5052606;28;20398;-74
2023/05/16 04:28:51;;;;;;;16.58;13.30;;;;;;;14.26;100.00;101274.53;5052407;28;20021;-74
2023/05/16 04:31:17;;;;;;;16.83;12.75;;;;;;;14.00;100.00;101206.03;5070113;28;20144;-75
2023/05/16 04:33:42;;;;;;;15.52;12.45;;;;;;;14.20;100.00;101242.22;5070737;28;20060;-74
2023/05/16 04:36:08;;;;;;;18.73;12.70;;;;;;;14.57;100.00;101263.56;5071908;28;20035;-74
2023/05/16 04:38:35;;;;;;;14.60;12.40;;;;;;;14.28;100.00;101183.25;5056052;28;20043;-74
2023/05/16 04:41:01;;;;;;;16.23;12.57;;;;;;;14.51;100.00;101224.47;5054723;28;20086;-72
2023/05/16 04:43:26;;;;;;;15.23;12.20;;;;;;;14.34;100.00;101154.97;5055283;28;20486;-71
2023/05/16 04:45:54;;;;;;;14.13;11.93;;;;;;;14.80;100.00;101227.16;5073080;28;20051;-72
2023/05/16 04:48:20;;;;;;;15.18;12.73;;;;;;;14.67;100.00;101201.03;5073582;28;20059;-72
2023/05/16 04:50:45;;;;;;;15.73;12.75;;;;;;;14.15;100.00;101128.09;5074154;28;20458;-73
2023/05/16 04:53:11;;;;;;;15.63;13.38;;;;;;;14.75;100.00;101204.25;5056062;28;20028;-72
2023/05/16 04:55:36;;;;;;;14.77;12.77;;;;;;;15.07;100.00;101205.97;5073848;28;20491;-72
2023/05/16 04:58:02;;;;;;;15.15;12.32;;;;;;;15.14;100.00;101188.69;5054882;28;20039;-72
2023/05/16 05:00:28;;;;;;;23.92;15.93;;;;;;;14.96;100.00;101146.50;5074114;28;20057;-73
2023/05/16 05:02:53;;;;;;;21.33;15.23;;;;;;;14.84;100.00;101149.38;5073564;28;20041;-73
2023/05/16 05:05:19;;;;;;;19.77;15.73;;;;;;;15.09;100.00;101153.00;5055809;28;20039;-72
2023/05/16 05:07:45;;;;;;;17.02;12.82;;;;;;;14.64;100.00;101085.06;5073932;28;20028;-73
2023/05/16 05:10:11;;;;;;;14.23;12.60;;;;;;;14.96;100.00;101143.94;5056026;28;20059;-73
2023/05/16 05:12:36;;;;;;;16.50;12.80;;;;;;;15.21;100.00;101146.69;5055830;28;20113;-73
2023/05/16 05:15:02;;;;;;;19.05;14.90;;;;;;;14.98;100.00;101131.09;5074118;28;20028;-73
2023/05/16 05:17:28;;;;;;;18.55;14.70;;;;;;;14.37;100.00;101030.34;5073659;28;20043;-72
2023/05/16 05:19:53;;;;;;;14.70;12.80;;;;;;;14.92;100.00;101114.16;5055625;28;20041;-73
2023/05/16 05:22:19;;;;;;;17.70;12.82;;;;;;;15.06;100.00;101076.22;5073170;28;20035;-73
2023/05/16 05:24:45;;;;;;;20.13;13.45;;;;;;;15.48;100.00;101074.13;5073176;28;20040;-72
2023/05/16 05:27:10;;;;;;;18.48;12.40;;;;;;;15.24;100.00;101055.19;5073379;28;20478;-73
2023/05/16 05:29:36;;;;;;;16.33;12.40;;;;;;;15.50;100.00;101062.13;5054463;28;20033;-72
2023/05/16 05:32:01;;;;;;;13.60;11.45;;;;;;;15.88;100.00;101082.28;5073068;28;20051;-72
2023/05/16 05:34:27;;;;;;;15.75;12.57;;;;;;;15.10;100.00;100998.41;5055356;28;20115;-72
2023/05/16 05:36:52;;;;;;;13.88;12.25;;;;;;;15.50;100.00;100992.91;5073354;28;20021;-73
2023/05/16 05:39:17;;;;;;;13.15;11.80;;;;;;;15.24;100.00;100957.81;5073032;28;20063;-73
2023/05/16 05:41:44;;;;;;;15.10;12.63;;;;;;;15.22;100.00;100939.09;5072930;28;20089;-72
2023/05/16 05:44:09;;;;;;;13.45;12.00;;;;;;;15.45;100.00;100944.34;5055140;28;20091;-72
2023/05/16 05:46:35;;;;;;;16.50;11.70;;;;;;;15.66;100.00;100970.19;5072418;28;20493;-72
2023/05/16 05:49:00;;;;;;;14.88;11.30;;;;;;;15.79;100.00;100974.00;5071693;28;20025;-72
2023/05/16 05:51:26;;;;;;;12.73;11.25;;;;;;;15.75;100.00;100960.44;5072449;28;20020;-72
2023/05/16 05:53:53;;;;;;;13.05;11.23;;;;;;;16.00;100.00;100934.81;5072103;28;20033;-73
2023/05/16 05:56:20;;;;;;;13.82;11.35;;;;;;;15.71;100.00;100873.44;5055270;28;20475;-72
2023/05/16 05:58:45;;;;;;;13.13;11.45;;;;;;;15.90;100.00;100864.22;5054497;28;20052;-71
2023/05/16 06:01:11;;;;;;;13.57;11.07;;;;;;;16.61;100.00;100918.06;5054177;28;20024;-73
2023/05/16 06:03:36;;;;;;;13.95;10.48;;;;;;;16.50;100.00;100874.00;5072084;28;20040;-72
2023/05/16 06:06:03;;;;;;;14.50;10.70;;;;;;;17.02;100.00;100882.19;5054656;28;20027;-72
2023/05/16 06:08:28;;;;;;;14.90;10.77;;;;;;;16.81;100.00;100825.69;5071963;28;20025;-72
2023/05/16 06:10:54;;;;;;;14.95;9.75;;;;;;;16.11;100.00;100712.06;5054549;28;20479;-73
2023/05/16 06:13:19;;;;;;;12.40;10.00;;;;;;;16.86;100.00;100750.09;5072917;28;20499;-73
2023/05/16 06:15:52;;;;;;;11.68;10.13;;;;;;;16.49;100.00;100670.34;5072122;28;20123;-73
2023/05/16 06:18:17;;;;;;;11.75;9.93;;;;;;;16.93;100.00;100720.72;5054454;28;20115;-72
2023/05/16 06:20:43;;;;;;;13.18;9.77;;;;;;;16.72;100.00;100692.53;5071732;28;20042;-73
2023/05/16 06:23:08;;;;;;;15.88;10.43;;;;;;;16.79;100.00;100669.09;5071869;28;20402;-72
2023/05/16 06:25:33;;;;;;;14.50;9.75;;;;;;;17.28;100.00;100690.91;5072097;28;20032;-73
2023/05/16 06:27:59;;;;;;;13.93;8.85;;;;;;;17.42;100.00;100665.44;5054041;28;20028;-73
2023/05/16 06:30:24;;;;;;;12.00;8.80;;;;;;;17.40;100.00;100608.09;5053644;28;20037;-72
2023/05/16 06:32:50;;;;;;;12.52;8.27;;;;;;;17.77;100.00;100573.81;5072422;28;20028;-74
2023/05/16 06:35:15;;;;;;;10.15;8.48;;;;;;;17.62;100.00;100566.84;5072144;28;20050;-72
2023/05/16 06:37:41;;;;;;;9.63;8.18;;;;;;;17.48;100.00;100503.19;5071909;28;20089;-73
2023/05/16 06:40:06;;;;;;;11.85;8.45;;;;;;;18.30;100.00;100502.53;5071863;28;20608;-73
2023/05/16 06:42:32;;;;;;;12.77;8.00;;;;;;;18.47;100.00;100487.06;5071924;28;20056;-73
2023/05/16 06:44:57;;;;;;;10.52;6.95;;;;;;;18.66;100.00;100474.06;5054173;28;20039;-73
2023/05/16 06:47:23;;;;;;;8.57;6.63;;;;;;;18.82;100.00;100462.00;5072065;28;20564;-74
2023/05/16 06:49:49;;;;;;;12.35;7.15;;;;;;;18.82;100.00;100413.88;5053683;28;20029;-73
2023/05/16 06:52:15;;;;;;;8.68;6.72;;;;;;;19.02;100.00;100438.53;5054297;28;20028;-73
2023/05/16 06:54:40;;;;;;;8.02;6.10;;;;;;;18.82;100.00;100439.66;5071686;28;20514;-73
2023/05/16 06:57:07;;;;;;;8.13;6.40;;;;;;;19.24;100.00;100402.91;5071523;28;20112;-73
2023/05/16 06:59:34;;;;;;;8.30;6.35;;;;;;;19.08;100.00;100439.94;5070958;28;20055;-73
2023/05/16 07:02:00;;;;;;;10.07;6.68;;;;;;;18.78;100.00;100414.94;5071148;28;20414;-71
2023/05/16 07:04:25;;;;;;;9.75;6.57;;;;;;;19.62;100.00;100449.78;5069890;28;20417;-72
2023/05/16 07:06:51;;;;;;;9.75;6.80;;;;;;;19.40;100.00;100451.91;5053095;28;20036;-73
2023/05/16 07:09:17;;;;;;;8.82;6.80;;;;;;;19.10;100.00;100404.59;5071420;28;20040;-70
2023/05/16 07:11:43;;;;;;;9.50;6.32;;;;;;;20.04;100.00;100467.09;5071289;28;20036;-73
2023/05/16 07:14:08;;;;;;;9.98;5.63;;;;;;;20.34;100.00;100473.88;5071258;28;20024;-73
2023/05/16 07:16:34;;;;;;;12.70;5.97;;;;;;;19.67;100.00;100482.13;5071357;28;20090;-72
2023/05/16 07:19:00;;;;;;;11.50;6.38;;;;;;;19.76;100.00;100399.03;5052887;28;20024;-73
2023/05/16 07:21:25;;;;;;;8.73;6.07;;;;;;;19.89;100.00;100443.00;5053344;28;20082;-72
2023/05/16 07:23:51;;;;;;;7.30;6.15;;;;;;;19.72;100.00;100438.00;5071390;28;20414;-71
2023/05/16 07:26:17;;;;;;;9.38;6.10;;;;;;;19.89;100.00;100448.16;5071043;28;20060;-71
2023/05/16 07:28:42;;;;;;;8.48;6.03;;;;;;;20.22;100.00;100487.53;5053251;28;20120;-71
2023/05/16 07:31:08;;;;;;;9.73;6.30;;;;;;;20.15;100.00;100490.50;5071116;28;20032;-71
2023/05/16 07:33:35;;;;;;;12.40;6.68;;;;;;;19.86;100.00;100412.22;5053171;28;20033;-72
2023/05/16 07:36:01;;;;;;;12.07;6.85;;;;;;;19.87;100.00;100413.88;5052849;28;20387;-71
2023/05/16 07:38:26;;;;;;;10.10;7.45;;;;;;;19.79;100.00;100454.78;5070702;28;20032;-71
2023/05/16 07:40:52;;;;;;;12.40;7.93;;;;;;;19.34;100.00;100460.81;5070698;28;20067;-72
2023/05/16 07:43:17;;;;;;;11.38;8.10;;;;;;;19.74;100.00;100462.81;5059736;28;20033;-72
2023/05/16 07:45:42;;;;;;;11.32;7.50;;;;;;;20.04;100.00;100486.00;5032705;28;20041;-72
2023/05/16 07:48:08;;;;;;;9.30;7.45;;;;;;;20.42;100.00;100491.50;5033252;28;20036;-74
2023/05/16 07:50:34;;;;;;;12.68;7.72;;;;;;;20.80;100.00;100510.66;5032394;28;20047;-71
2023/05/16 07:53:00;;;;;;;12.45;7.22;;;;;;;20.03;100.00;100480.91;5050438;28;20411;-71
2023/05/16 07:55:25;;;;;;;10.70;7.22;;;;;;;20.16;100.00;100412.97;5033217;28;20120;-71
2023/05/16 07:57:51;;;;;;;11.18;6.82;;;;;;;20.32;100.00;100425.81;5050424;28;20518;-72
2023/05/16 08:00:17;;;;;;;16.30;8.18;;;;;;;20.66;100.00;100508.09;5050844;28;20482;-72
2023/05/16 08:02:43;;;;;;;10.38;7.60;;;;;;;20.14;100.00;100456.13;5049939;28;20304;-72
2023/05/16 08:05:08;;;;;;;11.95;7.00;;;;;;;20.10;100.00;100449.50;5050563;28;20025;-72
2023/05/16 08:07:34;;;;;;;9.18;6.50;;;;;;;19.79;100.00;100436.72;5050470;28;20029;-71
2023/05/16 08:09:59;;;;;;;9.90;7.82;;;;;;;19.70;100.00;100432.94;5050517;28;20036;-72
2023/05/16 08:12:26;;;;;;;10.05;8.00;;;;;;;19.96;100.00;100472.72;5054409;28;20032;-72
2023/05/16 08:14:51;;;;;;;13.20;8.05;;;;;;;20.24;100.00;100469.38;5054996;28;20032;-72
2023/05/16 08:17:17;;;;;;;11.93;8.10;;;;;;;19.86;100.00;100431.13;5054165;28;20044;-72
2023/05/16 08:19:42;;;;;;;11.45;7.95;;;;;;;20.16;100.00;100451.72;5054285;28;20025;-72
2023/05/16 08:22:08;;;;;;;12.98;8.90;;;;;;;20.27;100.00;100451.09;5054556;28;20107;-72
2023/05/16 08:24:34;;;;;;;14.55;8.38;;;;;;;20.49;100.00;100428.19;5054784;28;20083;-72
2023/05/16 08:27:00;;;;;;;14.02;8.32;;;;;;;19.80;100.00;100417.75;5054768;28;20029;-71
2023/05/16 08:29:25;;;;;;;13.80;9.10;;;;;;;20.53;100.00;100469.25;5037072;28;20403;-72
2023/05/16 08:31:51;;;;;;;11.80;8.50;;;;;;;20.21;100.00;100452.28;5036853;28;20491;-72
2023/05/16 08:34:16;;;;;;;12.07;8.20;;;;;;;20.80;100.00;100453.00;5054014;28;20029;-71
2023/05/16 08:36:41;;;;;;;14.00;9.25;;;;;;;20.23;100.00;100421.19;5054361;28;20475;-71
2023/05/16 08:39:09;;;;;;;11.98;9.32;;;;;;;20.32;100.00;100418.06;5054072;28;20062;-71
2023/05/16 08:41:35;;;;;;;14.55;8.98;;;;;;;20.71;100.00;100450.03;5054479;28;20099;-72
2023/05/16 08:44:00;;;;;;;15.45;8.40;;;;;;;21.04;100.00;100423.84;5054309;28;20120;-71
2023/05/16 08:46:28;;;;;;;10.13;8.15;;;;;;;21.16;100.00;100482.56;5036351;28;20096;-72
2023/05/16 08:48:59;;;;;;;12.27;7.20;;;;;;;21.44;100.00;100486.78;5053850;28;20502;-72
2023/05/16 08:51:26;;;;;;;8.82;6.90;;;;;;;22.38;100.00;100572.84;5036003;28;20178;-72
2023/05/16 08:53:59;;;;;;;13.15;6.63;;;;;;;21.95;100.00;100542.97;5036748;28;20774;-72
2023/05/16 08:56:25;;;;;;;11.55;6.50;;;;;;;21.88;100.00;100564.19;5054569;28;20580;-72
2023/05/16 08:58:53;;;;;;;11.27;7.05;;;;;;;21.13;100.00;100639.69;5053628;28;20136;-73
2023/05/16 09:01:21;;;;;;;11.70;7.15;;;;;;;21.21;100.00;100686.63;5054011;28;20028;-73
2023/05/16 09:03:47;;;;;;;13.15;5.97;;;;;;;21.38;100.00;100704.53;5053929;28;20025;-72
2023/05/16 09:06:13;;;;;;;10.40;5.93;;;;;;;21.65;100.00;100691.66;5053985;28;20033;-72
2023/05/16 09:08:38;;;;;;;9.88;5.53;;;;;;;22.01;100.00;100669.47;5035501;28;20033;-73
2023/05/16 09:11:04;;;;;;;7.88;5.32;;;;;;;22.08;100.00;100722.56;5053929;28;20036;-72
2023/05/16 09:13:30;;;;;;;10.25;5.50;;;;;;;22.56;100.00;100733.31;5053537;28;20495;-72
2023/05/16 09:16:08;;;;;;;9.80;5.50;;;;;;;23.01;100.00;100808.13;5053242;28;20414;-73
2023/05/16 09:18:34;;;;;;;8.18;5.35;;;;;;;22.73;100.00;100751.19;5053750;28;20036;-72
2023/05/16 09:21:03;;;;;;;10.18;5.15;;;;;;;22.70;100.00;100761.78;5054041;28;20032;-72
2023/05/16 09:23:29;;;;;;;11.05;5.57;;;;;;;22.75;100.00;100796.00;5053172;28;20483;-73
2023/05/16 09:25:57;;;;;;;9.57;5.32;;;;;;;21.86;100.00;100752.50;5053228;28;20120;-73
2023/05/16 09:28:24;;;;;;;8.10;4.93;;;;;;;22.85;100.00;100808.28;5053306;28;20124;-72
2023/05/16 09:30:52;;;;;;;12.73;5.45;;;;;;;22.99;100.00;100838.50;4702246;28;9999668;-73
2023/05/16 09:33:17;;;;;;;8.07;4.97;;;;;;;22.65;100.00;100842.47;5049735;28;20794;-71
2023/05/16 09:35:42;;;;;;;9.05;5.40;;;;;;;22.51;100.00;100833.84;5050627;28;20043;-71
2023/05/16 09:38:16;;;;;;;16.20;5.25;;;;;;;22.78;100.00;100897.78;5049935;28;20046;-73
2023/05/16 09:40:41;;;;;;;8.93;4.82;;;;;;;22.92;100.00;100902.94;5034032;28;20124;-72
2023/05/16 09:43:07;;;;;;;8.55;5.03;;;;;;;22.62;100.00;100847.00;5050516;28;20546;-72
2023/05/16 09:45:34;;;;;;;9.95;4.85;;;;;;;23.00;100.00;100887.69;5051047;28;20041;-71
2023/05/16 09:48:13;;;;;;;7.35;4.78;;;;;;;22.67;100.00;100871.72;5050716;28;20111;-72
2023/05/16 09:50:41;;;;;;;10.77;4.75;;;;;;;22.76;100.00;100925.59;5050804;28;20515;-72
2023/05/16 09:53:06;;;;;;;9.90;4.70;;;;;;;22.61;100.00;101475.44;5051171;28;20573;-74
2023/05/16 09:55:32;;;;;;;9.23;5.03;;;;;;;23.01;100.00;101542.44;5052911;28;20033;-72
2023/05/16 09:57:57;;;;;;;11.32;5.00;;;;;;;23.22;100.00;101542.09;5052950;28;20044;-72
2023/05/16 10:00:29;;;;;;;9.10;5.10;;;;;;;23.21;100.00;101543.00;5031431;28;20076;-72
2023/05/16 10:02:56;;;;;;;9.38;5.20;;;;;;;23.13;100.00;101482.06;5033027;28;20135;-74
2023/05/16 10:05:25;;;;;;;14.55;5.55;;;;;;;23.17;100.00;101531.13;5031239;28;20084;-73
2023/05/16 10:07:53;;;;;;;12.48;6.45;;;;;;;23.45;100.00;101532.22;5032955;28;20056;-74
2023/05/16 10:10:19;;;;;;;11.45;6.40;;;;;;;23.64;100.00;101564.84;5032493;28;20056;-72
2023/05/16 10:12:45;;;;;;;12.27;6.00;;;;;;;23.53;100.00;101537.81;5032755;28;20079;-74
2023/05/16 10:15:10;;;;;;;11.82;6.50;;;;;;;23.69;100.00;101569.78;5032583;28;20033;-73
2023/05/16 10:17:39;;;;;;;11.88;6.45;;;;;;;23.75;100.00;101598.03;5032812;28;20057;-73
2023/05/16 10:20:06;;;;;;;11.05;7.20;;;;;;;23.59;100.00;101589.41;5032767;28;20029;-73
2023/05/16 10:22:37;;;;;;;9.15;6.18;;;;;;;23.18;100.00;101556.16;5032784;28;20454;-71
2023/05/16 10:25:16;;;;;;;13.45;5.90;;;;;;;23.43;100.00;101596.38;5031951;28;20105;-74
2023/05/16 10:27:41;;;;;;;9.10;5.55;;;;;;;23.22;100.00;101549.03;5031064;28;20069;-72
2023/05/16 10:30:09;;;;;;;10.55;7.13;;;;;;;23.45;100.00;101564.22;5030854;28;20575;-74
2023/05/16 10:32:36;;;;;;;7.07;5.50;;;;;;;23.66;100.00;101539.63;5032458;28;20030;-73
2023/05/16 10:35:02;;;;;;;10.38;5.57;;;;;;;23.94;100.00;101606.44;5032009;28;20136;-73
2023/05/16 10:37:31;;;;;;;10.77;5.78;;;;;;;23.90;100.00;101581.56;5031507;28;20048;-71
2023/05/16 10:39:59;;;;;;;12.30;6.65;;;;;;;23.88;100.00;101549.63;5032351;28;20065;-71
2023/05/16 10:42:25;;;;;;;11.80;7.93;;;;;;;24.46;100.00;101591.28;5032395;28;20571;-71
2023/05/16 10:44:55;;;;;;;11.23;7.25;;;;;;;24.26;100.00;101537.00;5030651;28;20120;-71
2023/05/16 10:47:21;;;;;;;11.60;5.88;;;;;;;24.73;100.00;101541.03;5032026;28;20408;-72
2023/05/16 10:49:46;;;;;;;7.43;5.20;;;;;;;24.56;100.00;101537.75;5030328;28;20029;-71
2023/05/16 10:52:14;;;;;;;8.27;5.20;;;;;;;24.37;100.00;101506.81;5030286;28;20056;-72
2023/05/16 10:54:49;;;;;;;11.07;4.88;;;;;;;24.83;100.00;101525.69;5031992;28;20400;-72
2023/05/16 10:57:18;;;;;;;10.02;4.82;;;;;;;24.24;100.00;101429.66;5031519;28;20112;-72
2023/05/16 10:59:48;;;;;;;11.45;5.13;;;;;;;25.13;100.00;101500.31;5044926;28;20049;-71
2023/05/16 11:02:32;;;;;;;9.27;4.43;;;;;;;25.30;100.00;101504.41;5051621;28;20170;-73
2023/05/16 11:05:02;;;;;;;9.68;4.65;;;;;;;25.18;100.00;101523.44;5051896;28;20082;-72